Latest Weather Observations for Edenhope

IDV60801

Issued at 10:02 pm EST Wednesday 24 August 2016 (issued every 30 minutes, with the page automatically refreshed every 10 minutes)

About weather observations | Map of weather stations | Latest weather observations for VIC | Other Formats
Station Details ID: 079099 Name: EDENHOPE AIRPORT Lat: -37.02 Lon: 141.27 Height: 155.0 m
Data from the previous 72 hours. | See also: Recent months at Edenhope
Date/Time
EST
Temp
°C
App
Temp
°C
Dew
Point
°C
Rel
Hum
%
Delta-T
°C
Wind Press
QNH
hPa
Press
MSL
hPa
Rain since
9am
mm
Dir  Spd
km/h
Gust
km/h
Spd
kts
Gust
kts
24/10:00pm 5.3 3.1 3.2 86 0.9 S 4 6 2 3 - - 0.0
24/09:30pm 5.8 3.0 3.3 84 1.1 S 7 11 4 6 - - 0.0
24/09:00pm 6.0 3.5 3.5 84 1.1 SSW 6 7 3 4 - - 0.0
24/08:30pm 6.3 3.8 3.6 83 1.1 S 6 7 3 4 - - 0.0
24/08:00pm 6.8 4.3 3.9 82 1.2 S 6 9 3 5 - - 0.0
24/07:30pm 7.2 4.7 3.8 79 1.5 S 6 9 3 5 - - 0.0
24/07:00pm 8.0 5.3 3.7 74 1.9 S 7 9 4 5 - - 0.0
24/06:30pm 8.7 5.5 3.3 69 2.3 S 9 15 5 8 - - 0.0
24/06:00pm 9.5 6.0 3.5 66 2.6 S 11 17 6 9 - - 0.0
24/05:30pm 11.1 8.0 3.4 59 3.4 SSW 9 15 5 8 - - 0.0
24/05:00pm 11.0 7.8 3.1 58 3.5 S 9 13 5 7 - - 0.0
24/04:30pm 11.1 7.3 3.9 61 3.2 SSW 13 19 7 10 - - 0.0
24/04:00pm 11.1 7.5 2.7 56 3.7 S 11 19 6 10 - - 0.0
24/03:30pm 11.3 6.4 2.1 53 4.0 SE 17 26 9 14 - - 0.0
24/03:00pm 11.8 8.4 1.7 50 4.3 S 9 17 5 9 - - 0.0
24/02:30pm 12.6 8.7 3.3 53 4.2 S 13 24 7 13 - - 0.0
24/02:00pm 11.8 8.3 1.2 48 4.5 SSW 9 26 5 14 - - 0.0
24/01:30pm 11.7 8.6 1.1 48 4.5 S 7 17 4 9 - - 0.0
24/01:00pm 10.9 6.5 0.6 49 4.3 SSE 13 19 7 10 - - 0.0
24/12:30pm 10.7 6.7 0.4 49 4.2 SSE 11 19 6 10 - - 0.0
24/12:00pm 11.3 7.1 1.5 51 4.2 SE 13 20 7 11 - - 0.0
24/11:30am 10.9 6.4 2.2 55 3.7 SE 15 24 8 13 - - 0.0
24/11:00am 10.5 6.1 2.8 59 3.3 SE 15 26 8 14 - - 0.0
24/10:30am 9.5 5.0 2.4 61 3.0 SE 15 22 8 12 - - 0.0
24/10:00am 9.3 5.0 3.1 65 2.7 ESE 15 22 8 12 - - 0.0
24/09:30am 8.3 5.3 4.1 75 1.8 SE 9 15 5 8 - - 0.0
24/09:00am 6.8 3.7 3.6 80 1.4 SE 9 17 5 9 - - 0.0
24/08:30am 4.5 1.9 3.3 92 0.5 SSE 6 7 3 4 - - 0.0
24/08:00am 2.4 -0.1 1.4 93 0.4 SSE 4 6 2 3 - - 0.0
24/07:30am 2.0 -0.6 1.0 93 0.4 S 4 6 2 3 - - 0.0
24/07:00am 1.9 -0.7 0.9 93 0.4 SSE 4 6 2 3 - - 0.0
24/06:30am 1.3 -1.8 0.1 92 0.4 SSE 6 6 3 3 - - 0.0
24/06:00am 1.9 -1.2 0.4 90 0.6 SE 6 7 3 4 - - 0.0
24/05:30am 2.7 0.1 0.8 87 0.7 SE 4 6 2 3 - - 0.0
24/05:00am 3.5 1.3 0.9 83 1.0 SE 2 4 1 2 - - 0.0
24/04:30am 4.0 0.9 1.2 82 1.1 SE 7 9 4 5 - - 0.0
24/04:00am 3.9 0.9 1.1 82 1.1 SE 6 9 3 5 - - 0.0
24/03:30am 4.0 0.9 1.2 82 1.1 SE 7 9 4 5 - - 0.0
24/03:00am 4.5 1.4 1.5 81 1.2 ESE 7 11 4 6 - - 0.0
24/02:30am 4.4 1.3 1.6 82 1.1 SE 7 9 4 5 - - 0.0
24/02:00am 4.2 1.3 1.6 83 1.0 SE 6 9 3 5 - - 0.0
24/01:30am 4.7 1.7 1.9 82 1.1 ESE 7 9 4 5 - - 0.0
24/01:00am 4.9 1.9 2.1 82 1.1 ESE 7 11 4 6 - - 0.0
24/12:30am 5.2 2.2 2.2 81 1.2 ESE 7 11 4 6 - - 0.0
24/12:00am 5.4 2.1 2.4 81 1.2 ESE 9 11 5 6 - - 0.0
 
Date/Time
EST
Temp
°C
App
Temp
°C
Dew
Point
°C
Rel
Hum
%
Delta-T
°C
Wind Press
QNH
hPa
Press
MSL
hPa
Rain since
9am
mm
Dir  Spd
km/h
Gust
km/h
Spd
kts
Gust
kts
23/11:30pm 5.6 2.3 2.6 81 1.2 ESE 9 11 5 6 - - 0.0
23/11:00pm 6.0 2.7 2.6 79 1.4 SE 9 13 5 7 - - 0.0
23/10:30pm 6.5 3.2 2.6 76 1.6 ESE 9 11 5 6 - - 0.0
23/10:00pm 6.6 3.3 2.5 75 1.7 SE 9 11 5 6 - - 0.0
23/09:30pm 6.7 4.0 2.4 74 1.8 SE 6 9 3 5 - - 0.0
23/09:00pm 7.2 4.5 2.5 72 2.0 SE 6 7 3 4 - - 0.0
23/08:30pm 7.7 4.8 2.6 70 2.1 SE 7 9 4 5 - - 0.0
23/08:00pm 7.9 5.1 3.0 71 2.1 SE 7 11 4 6 - - 0.0
23/07:30pm 8.2 5.6 3.1 70 2.2 SE 6 9 3 5 - - 0.0
23/07:00pm 8.8 6.0 3.4 69 2.3 SSE 7 9 4 5 - - 0.0
23/06:30pm 9.0 6.5 3.6 69 2.4 SSE 6 7 3 4 - - 0.0
23/06:00pm 10.1 7.5 3.4 63 2.9 SSE 6 9 3 5 - - 0.0
23/05:30pm 11.2 8.0 3.3 58 3.5 SSE 9 13 5 7 - - 0.0
23/05:00pm 12.4 9.8 3.1 53 4.1 SSE 6 13 3 7 - - 0.0
23/04:30pm 12.5 9.0 1.5 47 4.7 SSE 9 15 5 8 - - 0.0
23/04:00pm 12.7 9.2 1.4 46 4.9 SE 9 15 5 8 - - 0.0
23/03:30pm 12.9 9.2 2.2 48 4.7 E 11 17 6 9 - - 0.0
23/03:00pm 12.9 10.1 3.0 51 4.4 SE 7 11 4 6 - - 0.0
23/02:30pm 12.7 9.5 2.8 51 4.4 ESE 9 15 5 8 - - 0.0
23/02:00pm 12.8 10.1 2.9 51 4.4 SSE 6 13 3 7 - - 0.0
23/01:30pm 12.0 8.6 1.6 49 4.5 SE 9 13 5 7 - - 0.0
23/01:00pm 12.1 9.4 3.9 57 3.7 S 7 13 4 7 - - 0.0
23/12:30pm 11.7 9.0 3.7 58 3.6 ESE 7 11 4 6 - - 0.0
23/12:00pm 10.9 8.2 3.7 61 3.2 SSE 7 15 4 8 - - 0.0
23/11:30am 10.9 8.0 4.6 65 2.9 ESE 9 15 5 8 - - 0.0
23/11:00am 9.9 6.6 4.5 69 2.4 SE 11 15 6 8 - - 0.0
23/10:30am 9.3 5.2 4.5 72 2.1 SE 15 20 8 11 - - 0.0
23/10:00am 9.0 5.4 5.0 76 1.8 SE 13 19 7 10 - - 0.0
23/09:30am 8.3 5.1 4.9 79 1.5 SE 11 19 6 10 - - 0.0
23/09:00am 7.1 3.8 4.8 85 1.0 SE 11 15 6 8 - - 0.2
23/08:30am 5.7 3.2 4.8 94 0.4 SE 7 9 4 5 - - 0.2
23/08:00am 4.6 2.2 4.2 97 0.2 SE 6 9 3 5 - - 0.2
23/07:30am 3.8 1.2 3.4 97 0.2 SE 6 9 3 5 - - 0.2
23/07:00am 3.6 1.0 3.3 98 0.1 SE 6 7 3 4 - - 0.2
23/06:30am 3.8 1.3 3.5 98 0.1 SE 6 7 3 4 - - 0.2
23/06:00am 4.2 1.7 3.9 98 0.1 SE 6 9 3 5 - - 0.2
23/05:30am 3.8 1.3 3.5 98 0.1 SE 6 9 3 5 - - 0.2
23/05:00am 3.8 1.6 3.5 98 0.1 SSE 4 6 2 3 - - 0.2
23/04:30am 3.8 1.3 3.5 98 0.1 SSE 6 7 3 4 - - 0.2
23/04:00am 4.4 2.0 4.1 98 0.1 S 6 7 3 4 - - 0.2
23/03:30am 4.5 2.4 4.1 97 0.2 S 4 6 2 3 - - 0.2
23/03:00am 4.8 2.4 4.4 97 0.2 SSE 6 6 3 3 - - 0.2
23/02:30am 5.0 2.6 4.4 96 0.3 S 6 6 3 3 - - 0.2
23/02:00am 5.3 3.4 4.7 96 0.3 S 4 6 2 3 - - 0.2
23/01:30am 5.7 3.5 5.1 96 0.3 SSE 6 6 3 3 - - 0.2
23/01:00am 5.9 3.7 5.2 95 0.3 SSE 6 7 3 4 - - 0.2
23/12:30am 6.1 3.7 5.4 95 0.3 SSE 7 9 4 5 - - 0.2
23/12:00am 6.3 3.9 5.4 94 0.4 SSE 7 9 4 5 - - 0.0
 
Date/Time
EST
Temp
°C
App
Temp
°C
Dew
Point
°C
Rel
Hum
%
Delta-T
°C
Wind Press
QNH
hPa
Press
MSL
hPa
Rain since
9am
mm
Dir  Spd
km/h
Gust
km/h
Spd
kts
Gust
kts
22/11:30pm 6.9 4.8 5.8 93 0.5 SE 6 9 3 5 - - 0.0
22/11:00pm 7.4 4.8 6.2 92 0.5 SE 9 13 5 7 - - 0.0
22/10:30pm 7.7 5.6 6.5 92 0.6 SE 7 11 4 6 - - 0.0
22/10:00pm 7.9 5.8 6.5 91 0.6 SE 7 13 4 7 - - 0.0
22/09:30pm 8.3 6.3 6.9 91 0.7 SSE 7 13 4 7 - - 0.0
22/09:00pm 8.7 6.3 7.0 89 0.8 SE 9 13 5 7 - - 0.0
22/08:30pm 9.1 6.7 7.2 88 0.9 SE 9 15 5 8 - - 0.0
22/08:00pm 9.2 6.9 7.5 89 0.8 SSE 9 15 5 8 - - 0.0
22/07:30pm 9.1 7.4 7.4 89 0.8 S 6 7 3 4 - - 0.0
22/07:00pm 9.5 7.9 7.8 89 0.8 SSE 6 7 3 4 - - 0.0
22/06:30pm 10.1 9.6 7.7 85 1.2 CALM 0 0 0 0 - - 0.0
22/06:00pm 10.9 9.3 8.1 83 1.4 ESE 6 6 3 3 - - 0.0
22/05:30pm 11.7 10.1 8.6 81 1.5 S 7 11 4 6 - - 0.0
22/05:00pm 12.9 11.1 8.0 72 2.4 SE 7 13 4 7 - - 0.0
22/04:30pm 13.3 12.1 8.0 70 2.6 SW 4 7 2 4 - - 0.0
22/04:00pm 12.5 11.4 8.4 76 2.0 S 4 6 2 3 - - 0.0
22/03:30pm 11.6 9.1 8.3 80 1.6 S 11 17 6 9 - - 0.0
22/03:00pm 13.4 11.2 8.0 70 2.7 WSW 9 17 5 9 - - 0.0
22/02:30pm 13.6 11.6 8.7 72 2.5 SW 9 15 5 8 - - 0.0
22/02:00pm 13.3 10.8 8.0 70 2.6 W 11 17 6 9 - - 0.0
22/01:30pm 13.3 10.5 8.4 72 2.5 WNW 13 19 7 10 - - 0.0
22/01:00pm 12.4 10.7 7.7 73 2.3 WNW 6 11 3 6 - - 0.0
22/12:30pm 11.9 9.8 8.2 78 1.8 WNW 9 13 5 7 - - 0.0
22/12:00pm 11.9 10.2 8.4 79 1.7 WNW 7 13 4 7 - - 0.0
22/11:30am 11.5 9.7 8.0 79 1.7 NW 7 13 4 7 - - 0.0
22/11:00am 11.1 9.4 8.5 84 1.3 WNW 7 13 4 7 - - 0.0
22/10:30am 10.9 8.9 8.7 86 1.1 NW 9 11 5 6 - - 0.0
22/10:00am 10.3 8.8 8.4 88 0.9 W 6 9 3 5 - - 0.0
22/09:30am 9.2 7.4 7.8 91 0.7 WNW 7 11 4 6 - - 0.0
22/09:00am 8.6 7.3 7.7 94 0.4 NNW 4 6 2 3 - - 9.4
22/08:30am 8.0 6.1 7.4 96 0.3 N 7 9 4 5 - - 9.4
22/08:00am 7.9 6.2 7.6 98 0.1 N 6 7 3 4 - - 9.4
22/07:30am 7.2 6.1 6.9 98 0.1 NNE 2 4 1 2 - - 9.4
22/07:00am 6.6 5.0 6.3 98 0.1 NNE 4 6 2 3 - - 9.2
22/06:30am 6.8 6.0 6.5 98 0.1 CALM 0 0 0 0 - - 9.2
22/06:00am 6.9 5.0 6.6 98 0.1 N 6 9 3 5 - - 9.2
22/05:30am 5.9 3.6 5.6 98 0.1 N 7 9 4 5 - - 9.2
22/05:00am 6.6 4.4 6.3 98 0.1 N 7 9 4 5 - - 9.2
22/04:30am 6.8 4.9 6.5 98 0.1 N 6 7 3 4 - - 9.2
22/04:00am 6.6 4.6 6.3 98 0.1 NNE 6 7 3 4 - - 9.2
22/03:30am 6.2 4.1 5.9 98 0.1 NNE 6 9 3 5 - - 9.2
22/03:00am 5.8 4.0 5.5 98 0.1 NE 4 6 2 3 - - 9.2
22/02:30am 6.3 4.1 6.0 98 0.1 NNE 7 9 4 5 - - 9.2
22/02:00am 5.7 3.5 5.4 98 0.1 NNE 6 7 3 4 - - 9.0
22/01:30am 5.6 3.8 5.3 98 0.1 NNE 4 6 2 3 - - 9.0
22/01:00am 6.2 4.1 5.9 98 0.1 NNE 6 7 3 4 - - 9.0
22/12:30am 6.6 4.0 6.3 98 0.1 NNE 9 11 5 6 - - 9.0
22/12:00am 6.7 5.1 6.4 98 0.1 NNE 4 6 2 3 - - 9.0
 
Date/Time
EST
Temp
°C
App
Temp
°C
Dew
Point
°C
Rel
Hum
%
Delta-T
°C
Wind Press
QNH
hPa
Press
MSL
hPa
Rain since
9am
mm
Dir  Spd
km/h
Gust
km/h
Spd
kts
Gust
kts
21/11:30pm 6.6 4.6 6.3 98 0.1 NNE 6 6 3 3 - - 9.0
21/11:00pm 6.8 5.2 6.4 97 0.2 N 4 6 2 3 - - 9.0
21/10:30pm 6.3 4.2 5.9 97 0.2 N 6 7 3 4 - - 9.0

Other Formats:

Comma delimited format used in spreadsheet applications
http://www.bom.gov.au/fwo/IDV60801/IDV60801.95832.axf

JavaScript Object Notation format (JSON) in row-major order
http://www.bom.gov.au/fwo/IDV60801/IDV60801.95832.json